Time;durP1;ratioP1;P1;durP2;ratioP2;P2;SDS_P1;SDS_P2;PMS_P1;PMS_P2;Temp;Humidity;BMP_temperature;BMP_pressure;BME280_temperature;BME280_humidity;BME280_pressure;Samples;Min_cycle;Max_cycle;Signal;HPM_P1;HPM_P2
2023/05/14 00:01:19;;;;;;;12.65;6.57;;;;;;;15.19;66.38;99996.69;4934934;28;20097;-94
2023/05/14 00:03:46;;;;;;;9.40;6.30;;;;;;;15.20;66.84;100008.22;4950243;28;20051;-94
2023/05/14 00:06:13;;;;;;;10.23;6.55;;;;;;;15.23;65.81;100007.88;4924976;28;20130;-94
2023/05/14 00:08:40;;;;;;;9.27;5.80;;;;;;;15.20;64.90;100008.22;4933143;28;20494;-95
2023/05/14 00:11:07;;;;;;;11.05;6.47;;;;;;;15.15;64.59;100010.53;4918027;28;20049;-93
2023/05/14 00:13:35;;;;;;;14.05;6.10;;;;;;;15.15;64.92;100006.03;4938547;28;20059;-93
2023/05/14 00:16:02;;;;;;;8.95;5.68;;;;;;;15.14;64.72;99996.34;4938297;28;20078;-93
2023/05/14 00:18:29;;;;;;;10.20;5.88;;;;;;;15.15;64.60;99998.00;4920844;28;20054;-92
2023/05/14 00:20:56;;;;;;;11.23;6.65;;;;;;;15.12;64.36;99998.31;4931544;28;20051;-92
2023/05/14 00:23:23;;;;;;;11.60;6.93;;;;;;;15.11;64.03;99999.34;4921051;28;20390;-92
2023/05/14 00:25:50;;;;;;;13.30;7.22;;;;;;;15.01;64.29;99997.75;4934522;28;20050;-94
2023/05/14 00:28:16;;;;;;;11.73;7.22;;;;;;;14.98;64.38;99997.09;4936417;28;20046;-93
2023/05/14 00:30:43;;;;;;;9.30;6.28;;;;;;;15.02;64.22;99992.25;4946188;28;20048;-93
2023/05/14 00:33:10;;;;;;;10.23;6.60;;;;;;;15.00;64.13;99990.75;4933673;28;20078;-93
2023/05/14 00:35:37;;;;;;;12.38;6.78;;;;;;;14.96;64.24;99982.22;4945286;28;20126;-93
2023/05/14 00:38:04;;;;;;;12.65;7.28;;;;;;;14.92;64.51;99984.34;4932753;28;20050;-93
2023/05/14 00:40:31;;;;;;;9.98;6.22;;;;;;;14.91;64.66;99982.69;4934291;28;20043;-94
2023/05/14 00:42:59;;;;;;;10.82;6.80;;;;;;;14.88;64.38;99979.50;4937416;28;20486;-93
2023/05/14 00:45:26;;;;;;;10.98;6.05;;;;;;;14.84;64.78;99987.00;4950588;28;20558;-93
2023/05/14 00:47:53;;;;;;;13.48;6.70;;;;;;;14.87;64.75;99980.50;4905497;28;20509;-92
2023/05/14 00:50:20;;;;;;;11.55;6.22;;;;;;;14.85;64.62;99975.28;4935748;28;20062;-94
2023/05/14 00:52:48;;;;;;;10.63;6.05;;;;;;;14.85;65.06;99982.50;4935757;28;20135;-94
2023/05/14 00:55:15;;;;;;;11.30;7.10;;;;;;;14.80;65.42;99980.28;4948631;28;20122;-94
2023/05/14 00:57:42;;;;;;;9.77;5.95;;;;;;;14.72;65.73;99977.56;4917003;28;21686;-94
2023/05/14 01:00:10;;;;;;;10.25;5.68;;;;;;;14.68;66.75;99978.88;4949221;28;20043;-93
2023/05/14 01:02:36;;;;;;;9.73;5.60;;;;;;;14.61;66.79;99968.00;4971466;28;20067;-94
2023/05/14 01:05:04;;;;;;;11.35;5.85;;;;;;;14.58;66.76;99972.81;4932646;28;20126;-93
2023/05/14 01:07:34;;;;;;;13.20;6.35;;;;;;;14.51;67.65;99973.41;4917793;28;20138;-94
2023/05/14 01:10:27;;;;;;;12.50;6.28;;;;;;;14.50;67.77;99971.75;4944257;28;20050;-94
2023/05/14 01:12:53;;;;;;;9.75;6.35;;;;;;;14.43;68.23;99973.38;4933310;28;20050;-95
2023/05/14 01:15:23;;;;;;;10.65;6.22;;;;;;;14.46;68.26;99972.22;4969874;28;20546;-95
2023/05/14 01:17:55;;;;;;;14.82;6.47;;;;;;;14.42;68.40;99971.69;4938427;28;20545;-95
2023/05/14 01:20:22;;;;;;;14.32;7.50;;;;;;;14.44;68.15;99972.38;4931969;28;20051;-95
2023/05/14 01:22:49;;;;;;;15.25;6.80;;;;;;;14.44;67.92;99969.69;4905333;28;20047;-93
2023/05/14 01:25:16;;;;;;;13.48;6.70;;;;;;;14.43;68.04;99964.53;4938005;28;20043;-95
2023/05/14 01:28:14;;;;;;;15.57;7.10;;;;;;;14.31;68.27;99962.09;4918594;28;20368;-94
2023/05/14 01:30:56;;;;;;;13.30;6.47;;;;;;;14.23;68.22;99955.88;4949264;28;20039;-94
2023/05/14 01:33:25;;;;;;;11.50;6.13;;;;;;;14.30;68.25;99956.94;4919971;28;20051;-94
2023/05/14 01:35:53;;;;;;;12.45;7.15;;;;;;;14.29;68.38;99957.91;4944066;28;20074;-93
2023/05/14 01:38:20;;;;;;;12.57;6.53;;;;;;;14.28;68.46;99958.91;4935952;28;20047;-93
2023/05/14 01:40:48;;;;;;;11.18;6.05;;;;;;;14.28;68.24;99961.59;4919006;28;20356;-94
2023/05/14 01:43:15;;;;;;;9.60;6.32;;;;;;;14.27;68.22;99958.09;4934364;28;20039;-93
2023/05/14 01:45:42;;;;;;;11.57;6.63;;;;;;;14.15;68.67;99956.66;4923435;28;20071;-92
2023/05/14 01:48:09;;;;;;;11.68;6.88;;;;;;;14.09;68.99;99960.78;4933845;28;20051;-94
2023/05/14 01:50:36;;;;;;;10.85;6.38;;;;;;;14.03;69.08;99950.72;4934210;28;20435;-93
2023/05/14 01:53:03;;;;;;;18.60;6.72;;;;;;;14.04;69.01;99954.22;4934165;28;20055;-95
2023/05/14 01:55:30;;;;;;;14.70;7.05;;;;;;;14.02;69.08;99946.38;4916769;28;20055;-92
2023/05/14 01:57:57;;;;;;;12.32;7.13;;;;;;;13.96;69.14;99946.16;4937997;28;20415;-94
2023/05/14 02:00:27;;;;;;;18.35;6.90;;;;;;;13.98;68.98;99945.00;4939735;28;20513;-93
2023/05/14 02:02:53;;;;;;;14.95;7.10;;;;;;;13.98;69.12;99942.34;4943936;28;20542;-93
2023/05/14 02:05:22;;;;;;;11.30;6.72;;;;;;;14.02;68.92;99946.38;4938765;28;20053;-92
2023/05/14 02:07:49;;;;;;;12.40;6.78;;;;;;;14.01;68.90;99950.03;4930237;28;20060;-93
2023/05/14 02:10:15;;;;;;;13.13;6.80;;;;;;;13.96;68.88;99944.31;4953324;28;20066;-94
2023/05/14 02:12:48;;;;;;;12.68;6.88;;;;;;;13.86;69.39;99957.75;4950815;28;20054;-94
2023/05/14 02:15:15;;;;;;;13.43;6.97;;;;;;;13.90;69.28;99959.13;4935906;28;20475;-94
2023/05/14 02:17:42;;;;;;;17.65;6.63;;;;;;;13.83;69.50;99958.06;4930227;28;20454;-94
2023/05/14 02:20:10;;;;;;;16.23;7.68;;;;;;;13.88;69.28;99957.59;4934538;28;20130;-95
2023/05/14 02:22:45;;;;;;;14.45;7.22;;;;;;;13.83;69.27;99950.06;4935743;28;20051;-94
2023/05/14 02:25:11;;;;;;;20.30;7.43;;;;;;;13.81;69.26;99946.69;4941358;28;20043;-93
2023/05/14 02:27:39;;;;;;;11.27;6.90;;;;;;;13.82;69.42;99944.88;4950221;28;20044;-95
2023/05/14 02:30:06;;;;;;;10.52;7.03;;;;;;;13.79;69.20;99948.69;4922417;28;20051;-93
2023/05/14 02:32:33;;;;;;;14.05;7.30;;;;;;;13.74;69.58;99944.78;4922133;28;20042;-93
2023/05/14 02:35:00;;;;;;;11.52;6.60;;;;;;;13.67;69.62;99942.75;4922243;28;20055;-94
2023/05/14 02:37:27;;;;;;;14.80;6.80;;;;;;;13.71;69.53;99937.94;4934632;28;20067;-92
2023/05/14 02:39:54;;;;;;;16.30;7.28;;;;;;;13.65;69.72;99939.38;4951189;28;20502;-94
2023/05/14 02:42:21;;;;;;;13.75;7.53;;;;;;;13.56;69.60;99953.66;4923737;28;20520;-95
2023/05/14 02:44:48;;;;;;;15.18;7.15;;;;;;;13.57;69.86;99954.50;4921746;28;20047;-95
2023/05/14 02:47:15;;;;;;;16.17;7.38;;;;;;;13.64;69.72;99951.06;4930532;28;20055;-94
2023/05/14 02:49:42;;;;;;;12.52;7.97;;;;;;;13.69;69.56;99958.63;4937320;28;20043;-94
2023/05/14 02:52:09;;;;;;;16.70;7.68;;;;;;;13.62;69.65;99957.53;4949656;28;20070;-94
2023/05/14 02:54:35;;;;;;;14.57;7.32;;;;;;;13.63;69.75;99951.22;4925486;28;20052;-92
2023/05/14 02:57:02;;;;;;;13.65;7.20;;;;;;;13.56;69.95;99955.47;4921238;28;20058;-93
2023/05/14 02:59:30;;;;;;;13.23;7.35;;;;;;;13.54;69.88;99960.16;4918895;28;20070;-93
2023/05/14 03:01:57;;;;;;;15.93;7.13;;;;;;;13.52;69.82;99960.28;4919612;28;20086;-94
2023/05/14 03:04:24;;;;;;;11.13;6.78;;;;;;;13.39;70.29;99959.81;4942060;28;20047;-93
2023/05/14 03:06:51;;;;;;;15.70;7.35;;;;;;;13.46;70.01;99963.56;4938521;28;20054;-92
2023/05/14 03:09:18;;;;;;;14.48;7.88;;;;;;;13.49;69.83;99959.75;4944471;28;20049;-94
2023/05/14 03:11:45;;;;;;;11.98;7.20;;;;;;;13.43;70.09;99955.84;4901811;28;20476;-94
2023/05/14 03:14:12;;;;;;;12.35;7.97;;;;;;;13.38;70.44;99959.00;4946790;28;20095;-92
2023/05/14 03:16:41;;;;;;;16.45;7.68;;;;;;;13.36;70.31;99962.78;4950373;28;20046;-94
2023/05/14 03:19:08;;;;;;;13.48;7.13;;;;;;;13.38;70.21;99959.00;4894846;28;20049;-92
2023/05/14 03:21:35;;;;;;;18.65;7.78;;;;;;;13.38;70.16;99968.78;4940303;28;20498;-95
2023/05/14 03:24:02;;;;;;;16.00;8.32;;;;;;;13.32;70.39;99970.25;4934354;28;20051;-94
2023/05/14 03:26:29;;;;;;;13.77;7.53;;;;;;;13.36;70.30;99974.28;4944024;28;20450;-93
2023/05/14 03:28:56;;;;;;;13.30;7.35;;;;;;;13.35;69.91;99969.94;4926149;28;20161;-93
2023/05/14 03:31:23;;;;;;;11.57;7.38;;;;;;;13.32;69.88;99964.06;4918857;28;20543;-93
2023/05/14 03:33:50;;;;;;;15.45;7.55;;;;;;;13.26;70.13;99968.16;4950179;28;20047;-95
2023/05/14 03:36:17;;;;;;;17.10;8.18;;;;;;;13.32;69.92;99962.25;4941760;28;20083;-95
2023/05/14 03:38:46;;;;;;;14.50;7.20;;;;;;;13.20;70.25;99960.72;4924219;28;20108;-92
2023/05/14 03:41:14;;;;;;;20.90;7.53;;;;;;;13.25;69.94;99961.13;4938085;28;20051;-93
2023/05/14 03:43:41;;;;;;;12.23;7.35;;;;;;;13.15;70.39;99965.69;4921862;28;20047;-93
2023/05/14 03:46:08;;;;;;;11.85;7.40;;;;;;;13.07;70.40;99958.41;4935477;28;20047;-92
2023/05/14 03:48:35;;;;;;;12.68;6.88;;;;;;;13.13;70.28;99959.69;4930630;28;20125;-94
2023/05/14 03:51:03;;;;;;;12.63;6.80;;;;;;;13.14;70.31;99958.69;4952203;28;20054;-92
2023/05/14 03:53:30;;;;;;;13.80;8.25;;;;;;;13.02;70.63;99950.88;4937859;28;20050;-92
2023/05/14 03:55:57;;;;;;;18.25;7.88;;;;;;;13.08;70.36;99949.47;4935137;28;20059;-92
2023/05/14 03:58:24;;;;;;;15.20;8.00;;;;;;;13.04;70.34;99954.22;4936503;28;20054;-94
2023/05/14 04:00:52;;;;;;;15.05;8.02;;;;;;;13.09;70.41;99950.28;4944168;28;20062;-94
2023/05/14 04:03:19;;;;;;;13.32;7.68;;;;;;;13.12;70.02;99953.47;4931263;28;20405;-93
2023/05/14 04:05:46;;;;;;;14.43;7.45;;;;;;;13.08;70.12;99954.78;4955195;28;20057;-91
2023/05/14 04:08:13;;;;;;;13.95;7.40;;;;;;;13.13;69.99;99960.50;4932591;28;20048;-92
2023/05/14 04:10:41;;;;;;;11.80;7.03;;;;;;;13.08;70.31;99954.78;4927861;28;20047;-92
2023/05/14 04:13:08;;;;;;;15.52;9.20;;;;;;;13.05;70.86;99957.72;4925008;28;20074;-93
2023/05/14 04:15:38;;;;;;;14.85;8.13;;;;;;;13.24;70.95;99959.47;4920408;28;20178;-91
2023/05/14 04:18:05;;;;;;;14.90;7.40;;;;;;;14.14;71.30;99962.97;4936471;28;20081;-94
2023/05/14 04:20:32;;;;;;;15.18;8.20;;;;;;;15.00;68.54;99951.47;4919348;28;20503;-92
2023/05/14 04:22:58;;;;;;;13.13;7.70;;;;;;;15.71;64.83;99960.03;4941383;28;20058;-92
2023/05/14 04:25:25;;;;;;;13.75;7.93;;;;;;;15.69;62.20;99954.84;4950858;28;20043;-92
2023/05/14 04:27:52;;;;;;;15.68;8.13;;;;;;;15.06;62.25;99941.94;4934561;28;20051;-92
2023/05/14 04:30:19;;;;;;;16.75;7.60;;;;;;;14.53;63.68;99947.41;4947157;28;20125;-92
2023/05/14 04:32:46;;;;;;;13.65;7.60;;;;;;;14.14;64.90;99946.94;4937099;28;20047;-94
2023/05/14 04:35:13;;;;;;;14.70;7.53;;;;;;;13.85;65.48;99944.56;4917173;28;20558;-93
2023/05/14 04:37:40;;;;;;;13.75;7.97;;;;;;;13.75;66.60;99957.16;4945153;28;20407;-93
2023/05/14 04:40:10;;;;;;;13.52;8.23;;;;;;;13.55;67.22;99953.81;4920556;28;20415;-95
2023/05/14 04:42:37;;;;;;;16.95;7.93;;;;;;;13.50;68.07;99969.44;4920036;28;20054;-93
2023/05/14 04:45:05;;;;;;;17.00;9.38;;;;;;;13.43;67.72;99956.72;4932496;28;20866;-92
2023/05/14 04:47:32;;;;;;;15.65;8.15;;;;;;;13.35;68.00;99964.59;4940064;28;23071;-93
2023/05/14 04:49:58;;;;;;;21.30;9.35;;;;;;;13.36;68.03;99958.28;4932642;28;20402;-92
2023/05/14 04:52:25;;;;;;;14.43;7.70;;;;;;;13.30;68.26;99961.53;4951129;28;20043;-91
2023/05/14 04:54:52;;;;;;;16.98;8.35;;;;;;;13.23;68.55;99961.28;4936645;28;20057;-92
2023/05/14 04:57:19;;;;;;;16.30;8.82;;;;;;;13.20;69.11;99961.59;4942778;28;20581;-95
2023/05/14 04:59:46;;;;;;;16.65;8.18;;;;;;;13.12;69.02;99958.81;4919212;28;20122;-91
2023/05/14 05:02:13;;;;;;;18.17;8.40;;;;;;;13.14;68.92;99956.84;4937405;28;20039;-93
2023/05/14 05:04:40;;;;;;;14.27;7.90;;;;;;;13.13;68.86;99952.50;4932099;28;20074;-93
2023/05/14 05:07:07;;;;;;;21.55;9.98;;;;;;;13.13;69.43;99962.34;4900818;28;20067;-91
2023/05/14 05:09:33;;;;;;;15.68;8.50;;;;;;;13.14;69.94;99961.34;4953057;28;20435;-92
2023/05/14 05:12:00;;;;;;;17.65;8.45;;;;;;;13.22;69.59;99958.75;4950942;28;20059;-93
2023/05/14 05:14:27;;;;;;;16.38;8.75;;;;;;;13.31;69.76;99959.75;4933382;28;20043;-93
2023/05/14 05:16:54;;;;;;;14.35;8.82;;;;;;;13.40;69.88;99958.81;4929911;28;20046;-93
2023/05/14 05:19:21;;;;;;;17.15;8.45;;;;;;;13.49;69.69;99967.75;4925465;28;20125;-92
2023/05/14 05:22:01;;;;;;;17.58;9.00;;;;;;;13.52;69.57;99956.78;4953903;28;20047;-95
2023/05/14 05:24:28;;;;;;;16.58;9.13;;;;;;;13.50;69.78;99956.91;4936539;28;20483;-92
2023/05/14 05:26:55;;;;;;;14.98;9.13;;;;;;;13.50;69.45;99956.09;4938376;28;20036;-93
2023/05/14 05:29:23;;;;;;;15.55;8.77;;;;;;;13.49;69.62;99957.09;4952492;28;20105;-94
2023/05/14 05:31:50;;;;;;;18.73;8.32;;;;;;;13.48;69.89;99960.72;4937523;28;20075;-92
2023/05/14 05:34:18;;;;;;;16.25;8.75;;;;;;;13.52;69.98;99949.59;4935174;28;20069;-93
2023/05/14 05:36:45;;;;;;;18.73;9.25;;;;;;;13.56;70.11;99951.00;4926671;28;20094;-86
2023/05/14 05:39:11;;;;;;;21.45;10.35;;;;;;;13.57;70.12;99954.50;4919672;28;20046;-87
2023/05/14 05:41:38;;;;;;;15.93;9.07;;;;;;;13.63;70.19;99949.38;4952748;28;20055;-86
2023/05/14 05:44:05;;;;;;;16.25;8.60;;;;;;;13.68;70.23;99948.91;4955520;28;20047;-86
2023/05/14 05:46:32;;;;;;;19.63;8.00;;;;;;;13.77;70.43;99947.19;4919304;28;20075;-86
2023/05/14 05:48:59;;;;;;;17.08;8.82;;;;;;;13.81;70.80;99951.19;4953104;28;20039;-86
2023/05/14 05:51:25;;;;;;;15.20;8.95;;;;;;;13.87;70.77;99937.25;4933279;28;20506;-85
2023/05/14 05:53:52;;;;;;;18.42;9.38;;;;;;;14.03;70.12;99952.56;4934428;28;20081;-90
2023/05/14 05:56:20;;;;;;;15.73;8.38;;;;;;;14.08;69.94;99948.41;4919260;28;20066;-90
2023/05/14 05:58:46;;;;;;;15.65;8.70;;;;;;;14.08;69.83;99944.91;4936815;28;20101;-91
2023/05/14 06:01:13;;;;;;;15.48;9.05;;;;;;;14.10;69.16;99938.44;4962638;28;20118;-90
2023/05/14 06:03:40;;;;;;;26.88;9.60;;;;;;;14.16;69.04;99938.78;4928857;28;20099;-90
2023/05/14 06:06:07;;;;;;;17.40;9.00;;;;;;;14.29;68.74;99937.38;4911535;28;20063;-90
2023/05/14 06:08:34;;;;;;;16.17;9.13;;;;;;;14.30;68.74;99941.75;4906032;28;20107;-89
2023/05/14 06:11:01;;;;;;;13.80;8.00;;;;;;;14.33;68.45;99933.41;4952319;28;20446;-90
2023/05/14 06:13:28;;;;;;;17.85;9.27;;;;;;;14.31;67.95;99940.72;4938900;28;20522;-89
2023/05/14 06:15:55;;;;;;;17.88;9.13;;;;;;;14.37;67.91;99941.94;4919407;28;20058;-90
2023/05/14 06:18:21;;;;;;;16.92;8.90;;;;;;;14.37;67.67;99933.91;4953927;28;20051;-90
2023/05/14 06:20:48;;;;;;;16.50;9.07;;;;;;;14.40;67.68;99944.31;4921273;28;20054;-89
2023/05/14 06:23:15;;;;;;;16.70;9.55;;;;;;;14.37;67.87;99935.75;4935262;28;20051;-90
2023/05/14 06:25:42;;;;;;;18.77;9.75;;;;;;;14.33;67.87;99927.22;4950314;28;20513;-90
2023/05/14 06:28:09;;;;;;;16.70;9.73;;;;;;;14.41;67.34;99932.63;4955777;28;20043;-89
2023/05/14 06:30:36;;;;;;;22.05;9.55;;;;;;;14.36;67.75;99934.91;4932219;28;20427;-89
2023/05/14 06:33:02;;;;;;;17.42;8.90;;;;;;;14.35;68.03;99927.91;4951609;28;20047;-90
2023/05/14 06:35:29;;;;;;;18.48;9.65;;;;;;;14.39;67.84;99931.94;4944193;28;20047;-90
2023/05/14 06:37:56;;;;;;;16.92;9.35;;;;;;;14.41;68.11;99916.59;4950767;28;20062;-89
2023/05/14 06:40:23;;;;;;;16.40;10.07;;;;;;;14.43;68.10;99909.25;4935935;28;20039;-89
2023/05/14 06:42:50;;;;;;;17.60;10.25;;;;;;;14.50;68.33;99910.31;4950154;28;20130;-88
2023/05/14 06:45:18;;;;;;;19.42;9.27;;;;;;;14.53;67.99;99919.88;4936515;28;20046;-89
2023/05/14 06:47:45;;;;;;;20.92;9.98;;;;;;;14.55;68.38;99907.16;4939160;28;20047;-89
2023/05/14 06:50:12;;;;;;;16.73;9.98;;;;;;;14.57;68.26;99909.69;4933033;28;20162;-89
2023/05/14 06:52:39;;;;;;;21.58;9.80;;;;;;;14.64;67.91;99910.72;4920128;28;20047;-89
2023/05/14 06:55:06;;;;;;;20.60;10.50;;;;;;;14.71;67.93;99909.91;4922426;28;20414;-89
2023/05/14 06:57:33;;;;;;;23.27;10.45;;;;;;;14.73;68.35;99907.06;4956661;28;20128;-90
2023/05/14 07:00:00;;;;;;;14.85;8.20;;;;;;;14.75;68.14;99911.25;4917908;28;20043;-90
2023/05/14 07:02:31;;;;;;;18.85;10.20;;;;;;;14.84;68.46;99912.16;4937450;28;20130;-90
2023/05/14 07:04:57;;;;;;;19.58;9.90;;;;;;;14.75;68.84;99900.56;4949431;28;20148;-89
2023/05/14 07:07:24;;;;;;;20.60;10.77;;;;;;;14.81;67.99;99899.09;4917047;28;20062;-90
2023/05/14 07:09:51;;;;;;;24.73;10.45;;;;;;;14.81;68.59;99906.25;4938261;28;20058;-89
2023/05/14 07:12:18;;;;;;;18.70;9.98;;;;;;;14.86;68.65;99902.13;4914308;28;20078;-90
2023/05/14 07:14:45;;;;;;;19.70;9.95;;;;;;;14.90;69.44;99903.47;4935300;28;20049;-90
2023/05/14 07:17:12;;;;;;;20.30;10.45;;;;;;;14.90;68.41;99903.47;4951063;28;20721;-87
2023/05/14 07:19:39;;;;;;;22.25;11.30;;;;;;;14.91;68.68;99902.47;4948298;28;20047;-89
2023/05/14 07:22:06;;;;;;;24.65;11.23;;;;;;;14.85;68.77;99888.91;4936925;28;20077;-90
2023/05/14 07:24:32;;;;;;;26.15;10.90;;;;;;;14.85;68.28;99881.72;4933031;28;20035;-89
2023/05/14 07:27:00;;;;;;;25.33;11.73;;;;;;;14.86;68.81;99883.41;4924759;28;20167;-90
2023/05/14 07:29:28;;;;;;;25.55;12.10;;;;;;;14.92;68.64;99881.94;4955070;28;20055;-90
2023/05/14 07:31:55;;;;;;;23.50;11.07;;;;;;;14.95;68.73;99885.09;4935170;28;20050;-90
2023/05/14 07:34:22;;;;;;;21.45;10.52;;;;;;;14.96;68.78;99880.63;4950357;28;20495;-90
2023/05/14 07:36:49;;;;;;;22.40;10.50;;;;;;;15.02;68.53;99879.13;4950358;28;20043;-89
2023/05/14 07:39:16;;;;;;;23.35;11.80;;;;;;;15.02;68.55;99874.59;4934425;28;20407;-90
2023/05/14 07:41:43;;;;;;;22.70;12.00;;;;;;;15.06;68.80;99883.97;4949548;28;20047;-91
2023/05/14 07:44:09;;;;;;;26.92;11.48;;;;;;;15.06;68.30;99878.63;4928726;28;20414;-90
2023/05/14 07:46:36;;;;;;;25.10;10.98;;;;;;;15.07;68.83;99879.47;4935602;28;20057;-90
2023/05/14 07:49:03;;;;;;;23.80;11.05;;;;;;;15.05;68.46;99874.25;4931100;28;20458;-90
2023/05/14 07:51:32;;;;;;;27.83;12.38;;;;;;;15.10;69.01;99866.59;4942362;28;20058;-90
2023/05/14 07:53:59;;;;;;;26.38;11.68;;;;;;;15.24;68.53;99869.59;4924593;28;20438;-90
2023/05/14 07:56:26;;;;;;;22.42;12.15;;;;;;;15.21;68.21;99870.78;4933243;28;20496;-90
2023/05/14 07:58:53;;;;;;;24.55;12.70;;;;;;;15.29;68.74;99875.31;4933898;28;20133;-90
2023/05/14 08:01:19;;;;;;;23.50;11.13;;;;;;;15.42;67.62;99875.69;4936853;28;20724;-90
2023/05/14 08:03:47;;;;;;;24.75;12.38;;;;;;;15.40;68.11;99872.31;4925072;28;20070;-89
2023/05/14 08:06:14;;;;;;;23.02;12.05;;;;;;;15.44;67.88;99878.16;4949526;28;20031;-90
2023/05/14 08:08:40;;;;;;;28.85;11.73;;;;;;;15.47;67.63;99867.13;4921011;28;20040;-90
2023/05/14 08:11:07;;;;;;;25.40;12.18;;;;;;;15.43;67.17;99868.47;4949963;28;20649;-89
2023/05/14 08:13:34;;;;;;;25.48;11.82;;;;;;;15.48;67.63;99861.63;4952650;28;20066;-90
2023/05/14 08:16:01;;;;;;;25.20;12.27;;;;;;;15.63;67.39;99865.31;4948213;28;20070;-90
2023/05/14 08:18:28;;;;;;;19.98;10.10;;;;;;;15.67;67.65;99865.78;4936272;28;20062;-91
2023/05/14 08:20:55;;;;;;;21.63;11.07;;;;;;;15.72;67.87;99857.28;4952594;28;20058;-90
2023/05/14 08:23:22;;;;;;;23.10;11.75;;;;;;;15.76;68.44;99867.50;4931371;28;20573;-91
2023/05/14 08:25:49;;;;;;;23.27;11.50;;;;;;;15.83;67.74;99867.66;4949499;28;20050;-90
2023/05/14 08:28:16;;;;;;;19.38;10.30;;;;;;;15.84;67.39;99858.63;4947684;28;20402;-89
2023/05/14 08:30:42;;;;;;;24.52;11.50;;;;;;;15.86;68.00;99861.97;4916429;28;20047;-90
2023/05/14 08:33:09;;;;;;;22.17;10.63;;;;;;;15.87;68.13;99866.31;4935086;28;20046;-90
2023/05/14 08:35:36;;;;;;;21.55;11.05;;;;;;;15.87;67.95;99863.63;4954040;28;20051;-90
2023/05/14 08:38:03;;;;;;;20.90;9.07;;;;;;;15.91;68.03;99869.50;4920061;28;20047;-90
2023/05/14 08:40:30;;;;;;;21.95;12.10;;;;;;;15.86;67.60;99869.19;4952089;28;20399;-90
2023/05/14 08:42:57;;;;;;;23.33;12.13;;;;;;;15.84;66.85;99866.66;4913897;28;20110;-90
2023/05/14 08:45:28;;;;;;;22.50;11.73;;;;;;;15.75;66.56;99868.53;4928976;28;20395;-89
2023/05/14 08:47:56;;;;;;;24.95;12.00;;;;;;;15.73;66.36;99862.50;4948475;28;20058;-90
2023/05/14 08:50:24;;;;;;;22.67;11.00;;;;;;;15.74;66.51;99863.31;4930936;28;20043;-91
2023/05/14 08:52:52;;;;;;;19.23;11.63;;;;;;;15.74;66.85;99857.97;4929412;28;20495;-90
2023/05/14 08:55:19;;;;;;;19.67;10.27;;;;;;;15.75;67.06;99856.97;4952498;28;20043;-90
2023/05/14 08:57:46;;;;;;;22.08;10.52;;;;;;;15.80;67.15;99862.66;4934228;28;20493;-90
2023/05/14 09:00:13;;;;;;;20.98;10.30;;;;;;;15.79;66.84;99856.44;4934229;28;20050;-90
2023/05/14 09:02:41;;;;;;;20.25;9.88;;;;;;;15.88;67.13;99859.13;4954795;28;20047;-89
2023/05/14 09:05:08;;;;;;;15.70;9.65;;;;;;;15.93;67.00;99862.16;4920908;28;20070;-89
2023/05/14 09:07:35;;;;;;;20.63;9.95;;;;;;;15.93;67.22;99854.09;4962480;28;20047;-89
2023/05/14 09:10:02;;;;;;;18.55;10.32;;;;;;;15.98;67.03;99862.47;4944055;28;20495;-91
2023/05/14 09:12:30;;;;;;;19.85;9.85;;;;;;;15.98;66.81;99854.44;4933563;28;20044;-90
2023/05/14 09:14:57;;;;;;;23.85;11.25;;;;;;;16.00;66.88;99858.63;4946953;28;20055;-90
2023/05/14 09:17:25;;;;;;;23.75;11.35;;;;;;;16.01;66.51;99857.59;4941366;28;20482;-89
2023/05/14 09:19:52;;;;;;;19.05;9.88;;;;;;;16.01;66.56;99854.91;4965242;28;20060;-89
2023/05/14 09:22:19;;;;;;;24.73;11.20;;;;;;;16.06;66.25;99857.91;4944734;28;20039;-90
2023/05/14 09:25:01;;;;;;;18.60;9.05;;;;;;;15.99;66.35;99850.75;4939748;28;20135;-90
2023/05/14 09:27:29;;;;;;;20.50;11.00;;;;;;;16.09;66.07;99858.59;4961963;28;20047;-89
2023/05/14 09:30:03;;;;;;;20.42;10.00;;;;;;;16.08;66.48;99852.41;4927283;28;20052;-89
2023/05/14 09:32:44;;;;;;;22.55;11.02;;;;;;;16.06;64.70;99849.06;4930695;28;20047;-90
2023/05/14 09:35:14;;;;;;;22.75;11.35;;;;;;;16.11;65.32;99848.56;4928124;28;20503;-89
2023/05/14 09:37:42;;;;;;;22.85;11.75;;;;;;;16.12;65.44;99844.84;4901279;28;20370;-89
2023/05/14 09:40:10;;;;;;;20.67;10.52;;;;;;;16.09;65.46;99842.53;4934180;28;20135;-90
2023/05/14 09:42:38;;;;;;;22.30;11.60;;;;;;;16.08;66.57;99844.38;4931929;28;20051;-90
2023/05/14 09:45:06;;;;;;;19.98;10.38;;;;;;;16.17;66.47;99842.50;4936130;28;20047;-90
2023/05/14 09:47:33;;;;;;;23.80;11.75;;;;;;;16.16;66.55;99838.16;4923488;28;20048;-89
2023/05/14 09:50:00;;;;;;;19.63;10.45;;;;;;;16.21;66.60;99841.16;4926329;28;20126;-89
2023/05/14 09:52:27;;;;;;;24.90;12.23;;;;;;;16.25;66.93;99831.75;4916958;28;20059;-89
2023/05/14 09:54:54;;;;;;;21.77;11.48;;;;;;;16.32;66.86;99834.59;4914673;28;20057;-90
2023/05/14 09:57:21;;;;;;;22.58;11.38;;;;;;;16.28;67.57;99828.72;4928357;28;20075;-90
2023/05/14 09:59:47;;;;;;;20.75;10.38;;;;;;;16.27;66.83;99832.41;4932285;28;20520;-89
2023/05/14 10:02:36;;;;;;;17.48;9.00;;;;;;;16.23;66.84;99828.41;4946911;28;20063;-90
2023/05/14 10:05:05;;;;;;;20.60;10.43;;;;;;;16.34;66.95;99829.88;4929901;28;20047;-89
2023/05/14 10:07:52;;;;;;;22.80;11.75;;;;;;;16.24;68.33;99828.22;4931786;28;20054;-89
2023/05/14 10:10:20;;;;;;;20.60;10.90;;;;;;;16.34;67.49;99828.03;4945149;28;20051;-90
2023/05/14 10:12:52;;;;;;;24.10;11.00;;;;;;;16.31;66.88;99833.75;4948454;28;20760;-89
2023/05/14 10:15:23;;;;;;;19.67;11.00;;;;;;;16.33;66.58;99828.19;4935003;28;20039;-90
2023/05/14 10:17:55;;;;;;;20.92;11.95;;;;;;;16.33;66.13;99822.84;4932498;28;20043;-90
2023/05/14 10:20:22;;;;;;;18.65;10.05;;;;;;;16.36;66.92;99823.34;4952610;28;20103;-86
2023/05/14 10:22:49;;;;;;;24.38;11.05;;;;;;;16.40;66.65;99821.97;4957109;28;20509;-91
2023/05/14 10:25:17;;;;;;;20.75;10.70;;;;;;;16.44;66.97;99825.16;4934385;28;20051;-91
2023/05/14 10:27:44;;;;;;;20.48;10.43;;;;;;;16.44;66.30;99817.94;4936856;28;20129;-90
2023/05/14 10:30:11;;;;;;;23.38;11.63;;;;;;;16.41;66.19;99818.31;4936614;28;20043;-90
2023/05/14 10:32:40;;;;;;;28.23;11.77;;;;;;;16.40;67.05;99818.47;4925010;28;20195;-91
2023/05/14 10:35:19;;;;;;;21.92;10.85;;;;;;;16.38;66.07;99815.94;4905813;28;20047;-90
2023/05/14 10:37:46;;;;;;;25.10;10.75;;;;;;;16.45;66.43;99818.78;4951415;28;20043;-89
2023/05/14 10:40:13;;;;;;;21.55;11.50;;;;;;;16.49;65.63;99822.78;4949873;28;20047;-90
2023/05/14 10:42:45;;;;;;;21.92;12.00;;;;;;;16.47;65.84;99828.31;4920863;28;20102;-90
2023/05/14 10:45:13;;;;;;;21.38;11.27;;;;;;;16.50;65.28;99817.25;4950186;28;20053;-90
2023/05/14 10:47:44;;;;;;;22.27;11.70;;;;;;;16.47;64.91;99819.44;4929369;28;20047;-89
2023/05/14 10:50:13;;;;;;;18.35;11.25;;;;;;;16.48;64.80;99821.09;4935188;28;20471;-89
2023/05/14 10:52:43;;;;;;;21.20;11.70;;;;;;;16.41;65.55;99817.44;4919234;28;20055;-90
2023/05/14 10:55:14;;;;;;;20.92;11.00;;;;;;;16.38;65.16;99815.13;4930591;28;20102;-89
2023/05/14 10:57:42;;;;;;;22.40;11.40;;;;;;;16.42;65.25;99819.13;4915238;28;20070;-88
2023/05/14 11:00:10;;;;;;;19.13;10.90;;;;;;;16.45;65.26;99808.06;4951158;28;20581;-90
2023/05/14 11:02:39;;;;;;;17.23;9.30;;;;;;;16.42;65.27;99811.91;4950294;28;20047;-90
2023/05/14 11:05:12;;;;;;;17.92;9.27;;;;;;;16.50;63.56;99813.72;4951321;28;20078;-89
2023/05/14 11:07:41;;;;;;;19.38;9.82;;;;;;;16.41;64.33;99812.94;4948766;28;20048;-89
2023/05/14 11:10:10;;;;;;;15.25;8.75;;;;;;;16.43;65.23;99810.91;4952836;28;20074;-90
2023/05/14 11:12:39;;;;;;;18.42;10.13;;;;;;;16.44;63.79;99809.09;4934722;28;20055;-90
2023/05/14 11:15:08;;;;;;;21.17;9.77;;;;;;;16.52;64.01;99814.41;4948044;28;20049;-90
2023/05/14 11:17:36;;;;;;;15.55;8.73;;;;;;;16.42;63.84;99800.38;4949825;28;20055;-89
2023/05/14 11:20:06;;;;;;;20.98;9.88;;;;;;;16.51;63.89;99793.94;4937983;28;20047;-90
2023/05/14 11:22:34;;;;;;;17.02;9.02;;;;;;;16.51;64.48;99785.91;4956936;28;20082;-89
2023/05/14 11:25:01;;;;;;;17.52;9.77;;;;;;;16.51;64.87;99796.63;4949747;28;20476;-90